Time;durP1;ratioP1;P1;durP2;ratioP2;P2;SDS_P1;SDS_P2;PMS_P1;PMS_P2;Temp;Humidity;BMP_temperature;BMP_pressure;BME280_temperature;BME280_humidity;BME280_pressure;Samples;Min_cycle;Max_cycle;Signal;HPM_P1;HPM_P2
2023/11/08 04:06:44;;;;;;;0.30;0.30;;;8.30;99.90;;;;;;5170261;23;20227;-66
2023/11/08 04:09:10;;;;;;;0.40;0.40;;;8.20;99.90;;;;;;4974379;28;20172;-66
2023/11/08 04:11:36;;;;;;;0.30;0.30;;;8.20;99.90;;;;;;4974263;28;20243;-66
2023/11/08 04:14:01;;;;;;;0.30;0.30;;;8.20;99.90;;;;;;4974031;28;20776;-66
2023/11/08 04:16:27;;;;;;;0.30;0.30;;;8.20;99.90;;;;;;4974302;28;20196;-67
2023/11/08 04:18:52;;;;;;;0.37;0.37;;;8.20;99.90;;;;;;4972550;28;20254;-66
2023/11/08 04:21:18;;;;;;;0.30;0.30;;;8.20;99.90;;;;;;4956170;28;20655;-65
2023/11/08 04:23:44;;;;;;;0.30;0.30;;;8.20;99.90;;;;;;4973978;28;20200;-73
2023/11/08 04:26:10;;;;;;;0.30;0.30;;;8.20;99.90;;;;;;4973594;28;20525;-66
2023/11/08 04:28:39;;;;;;;0.37;0.37;;;8.30;99.90;;;;;;4974235;28;20168;-65
2023/11/08 04:31:05;;;;;;;0.30;0.30;;;8.30;99.90;;;;;;4956762;28;20180;-65
2023/11/08 04:33:31;;;;;;;0.40;0.40;;;8.30;99.90;;;;;;4957222;28;20265;-65
2023/11/08 04:35:58;;;;;;;0.30;0.30;;;8.20;99.90;;;;;;4971963;28;20677;-66
2023/11/08 04:38:24;;;;;;;0.50;0.50;;;8.20;99.90;;;;;;4974232;28;20175;-66
2023/11/08 04:40:49;;;;;;;0.30;0.30;;;8.20;99.90;;;;;;4974082;28;20168;-67
2023/11/08 04:43:15;;;;;;;0.30;0.30;;;8.20;99.90;;;;;;4973998;28;20169;-65
2023/11/08 04:45:41;;;;;;;0.40;0.40;;;8.10;99.90;;;;;;4973264;28;20616;-66
2023/11/08 04:48:06;;;;;;;0.37;0.37;;;8.10;99.90;;;;;;4973543;28;20664;-67
2023/11/08 04:50:32;;;;;;;0.30;0.30;;;8.20;99.90;;;;;;4973816;28;20518;-67
2023/11/08 04:52:58;;;;;;;0.30;0.30;;;8.20;99.90;;;;;;4974093;28;20251;-67
2023/11/08 04:55:23;;;;;;;0.30;0.30;;;8.30;99.90;;;;;;4973282;28;20203;-66
2023/11/08 04:57:49;;;;;;;0.30;0.30;;;8.30;99.90;;;;;;4973748;28;20604;-66
2023/11/08 05:00:14;;;;;;;0.30;0.30;;;8.30;99.90;;;;;;4973956;28;20176;-67
2023/11/08 05:02:41;;;;;;;0.30;0.30;;;8.40;99.90;;;;;;4974228;28;20259;-67
2023/11/08 05:05:09;;;;;;;0.40;0.40;;;8.40;99.90;;;;;;4976823;28;20211;-66
2023/11/08 05:07:35;;;;;;;0.40;0.40;;;8.40;99.90;;;;;;4977058;28;20250;-66
2023/11/08 05:10:01;;;;;;;0.50;0.50;;;8.30;99.90;;;;;;4977705;28;20172;-67
2023/11/08 05:12:26;;;;;;;0.30;0.30;;;8.30;99.90;;;;;;4977608;28;20580;-66
2023/11/08 05:14:53;;;;;;;0.30;0.30;;;8.30;99.90;;;;;;4976786;28;20196;-66
2023/11/08 05:17:20;;;;;;;0.40;0.40;;;8.30;99.90;;;;;;4977314;28;20179;-65
2023/11/08 05:19:46;;;;;;;0.30;0.30;;;8.30;99.90;;;;;;4977466;28;20175;-67
2023/11/08 05:22:12;;;;;;;0.40;0.40;;;8.30;99.90;;;;;;4977006;28;20172;-66
2023/11/08 05:24:38;;;;;;;0.32;0.32;;;8.30;99.90;;;;;;4975933;28;20490;-70
2023/11/08 05:27:05;;;;;;;0.30;0.30;;;8.30;99.90;;;;;;4975979;28;20225;-68
2023/11/08 05:29:31;;;;;;;0.30;0.30;;;8.30;99.90;;;;;;4976788;28;20431;-67
2023/11/08 05:31:57;;;;;;;0.30;0.30;;;8.30;99.90;;;;;;4977171;28;20535;-69
2023/11/08 05:34:25;;;;;;;0.30;0.30;;;8.20;99.90;;;;;;4976634;28;20222;-67
2023/11/08 05:36:51;;;;;;;0.30;0.30;;;8.20;99.90;;;;;;4976908;28;20432;-66
2023/11/08 05:39:22;;;;;;;0.30;0.30;;;8.10;99.90;;;;;;4976557;28;20183;-67
2023/11/08 05:41:48;;;;;;;0.40;0.40;;;8.10;99.90;;;;;;4977237;28;20168;-66
2023/11/08 05:44:15;;;;;;;0.30;0.30;;;8.10;99.90;;;;;;4976310;28;20372;-66
2023/11/08 05:46:41;;;;;;;0.40;0.40;;;8.10;99.90;;;;;;4976015;28;20195;-66
2023/11/08 05:49:08;;;;;;;0.33;0.33;;;8.00;99.90;;;;;;4976654;28;20172;-66
2023/11/08 05:51:34;;;;;;;0.30;0.30;;;8.00;99.90;;;;;;4977129;28;20404;-66
2023/11/08 05:54:00;;;;;;;0.30;0.30;;;8.00;99.90;;;;;;4958995;28;20180;-66
2023/11/08 05:56:26;;;;;;;0.30;0.30;;;8.00;99.90;;;;;;4976526;28;20282;-66
2023/11/08 05:58:51;;;;;;;0.30;0.30;;;8.00;99.90;;;;;;4976843;28;20427;-66
2023/11/08 06:01:19;;;;;;;0.30;0.30;;;7.90;99.90;;;;;;4975984;28;20246;-66
2023/11/08 06:03:45;;;;;;;0.40;0.40;;;7.90;99.90;;;;;;4956883;28;20294;-71
2023/11/08 06:06:11;;;;;;;0.30;0.30;;;7.90;99.90;;;;;;4975791;28;20295;-67
2023/11/08 06:08:36;;;;;;;0.30;0.30;;;7.80;99.90;;;;;;4976763;28;20223;-67
2023/11/08 06:11:04;;;;;;;0.37;0.37;;;7.80;99.90;;;;;;4976015;28;20183;-67
2023/11/08 06:13:32;;;;;;;0.30;0.30;;;7.80;99.90;;;;;;4976449;28;20400;-69
2023/11/08 06:15:58;;;;;;;0.30;0.30;;;7.80;99.90;;;;;;4975176;28;20192;-67
2023/11/08 06:18:26;;;;;;;0.30;0.30;;;7.70;99.90;;;;;;4976369;28;20224;-66
2023/11/08 06:20:52;;;;;;;0.32;0.32;;;7.70;99.90;;;;;;4976785;28;20175;-66
2023/11/08 06:23:18;;;;;;;0.40;0.40;;;7.70;99.90;;;;;;4986861;28;20544;-66
2023/11/08 06:25:44;;;;;;;0.30;0.30;;;7.60;99.90;;;;;;4958310;28;20203;-67
2023/11/08 06:28:09;;;;;;;0.40;0.40;;;7.60;99.90;;;;;;4978901;28;20175;-67
2023/11/08 06:30:35;;;;;;;0.30;0.30;;;7.50;99.90;;;;;;4958119;28;20184;-67
2023/11/08 06:33:02;;;;;;;0.30;0.30;;;7.50;99.90;;;;;;4975946;28;20411;-69
2023/11/08 06:35:28;;;;;;;0.40;0.40;;;7.60;99.90;;;;;;4975387;28;20669;-70
2023/11/08 06:37:53;;;;;;;0.30;0.30;;;7.70;99.90;;;;;;4975718;28;20265;-68
2023/11/08 06:40:19;;;;;;;0.40;0.40;;;7.70;99.90;;;;;;4975143;28;20172;-68
2023/11/08 06:42:45;;;;;;;0.30;0.30;;;7.80;99.90;;;;;;4975719;28;20602;-67
2023/11/08 06:45:12;;;;;;;0.38;0.38;;;7.80;99.90;;;;;;4974992;28;20235;-67
2023/11/08 06:47:38;;;;;;;0.40;0.40;;;7.80;99.90;;;;;;4975404;28;20215;-68
2023/11/08 06:50:04;;;;;;;0.60;0.60;;;7.80;99.90;;;;;;4974948;28;20180;-67
2023/11/08 06:52:30;;;;;;;0.30;0.30;;;7.90;99.90;;;;;;4975532;28;20183;-67
2023/11/08 06:54:56;;;;;;;0.30;0.30;;;8.00;99.90;;;;;;4970841;28;20199;-68
2023/11/08 06:57:21;;;;;;;0.30;0.30;;;8.10;99.90;;;;;;4981930;28;20176;-68
2023/11/08 06:59:47;;;;;;;0.30;0.30;;;8.30;99.90;;;;;;4989379;28;20183;-68
2023/11/08 07:02:12;;;;;;;0.30;0.30;;;8.50;99.90;;;;;;4984034;28;20218;-67
2023/11/08 07:04:41;;;;;;;0.40;0.40;;;8.70;99.90;;;;;;4964821;28;20196;-69
2023/11/08 07:07:10;;;;;;;0.30;0.30;;;8.80;99.90;;;;;;4976169;28;20188;-66
2023/11/08 07:09:35;;;;;;;0.30;0.30;;;8.90;99.90;;;;;;4957159;28;20192;-69
2023/11/08 07:12:01;;;;;;;0.30;0.30;;;9.00;99.90;;;;;;4964421;28;20177;-66
2023/11/08 07:14:27;;;;;;;0.30;0.30;;;9.00;99.90;;;;;;4974049;28;20278;-67
2023/11/08 07:16:53;;;;;;;0.40;0.40;;;9.00;99.90;;;;;;4988913;28;20203;-68
2023/11/08 07:19:18;;;;;;;0.40;0.40;;;9.20;99.90;;;;;;4976283;28;20187;-70
2023/11/08 07:21:44;;;;;;;0.40;0.40;;;9.30;99.90;;;;;;4991147;28;20184;-67
2023/11/08 07:24:10;;;;;;;0.30;0.30;;;9.50;99.90;;;;;;4978444;28;20196;-67
2023/11/08 07:26:35;;;;;;;0.30;0.30;;;9.80;99.90;;;;;;4977855;28;20193;-67
2023/11/08 07:29:05;;;;;;;0.70;0.70;;;10.00;99.90;;;;;;4993499;28;20382;-68
2023/11/08 07:31:31;;;;;;;0.30;0.30;;;10.20;99.90;;;;;;4992524;28;20181;-69
2023/11/08 07:33:57;;;;;;;0.30;0.30;;;10.60;99.90;;;;;;4976644;28;20822;-69
2023/11/08 07:36:24;;;;;;;0.30;0.30;;;11.10;99.90;;;;;;4987772;28;20436;-67
2023/11/08 07:38:50;;;;;;;0.30;0.20;;;11.60;99.90;;;;;;4977046;28;20826;-69
2023/11/08 07:41:19;;;;;;;0.30;0.30;;;12.00;99.90;;;;;;4994461;28;20431;-67
2023/11/08 07:43:44;;;;;;;0.30;0.30;;;12.30;99.90;;;;;;4973826;28;20506;-71
2023/11/08 07:46:10;;;;;;;0.43;0.40;;;12.50;99.90;;;;;;4975762;28;20418;-67
2023/11/08 07:48:36;;;;;;;0.37;0.37;;;12.50;99.90;;;;;;4976996;28;20617;-66
2023/11/08 07:51:03;;;;;;;0.40;0.40;;;12.40;99.90;;;;;;4982071;28;20422;-67
2023/11/08 07:53:29;;;;;;;0.30;0.30;;;12.50;99.90;;;;;;4984909;28;20211;-66
2023/11/08 07:55:54;;;;;;;0.30;0.27;;;12.60;99.90;;;;;;4973902;28;20478;-68
2023/11/08 07:58:20;;;;;;;0.40;0.40;;;12.70;99.90;;;;;;4975823;28;20807;-71
2023/11/08 08:00:46;;;;;;;0.30;0.20;;;12.90;99.90;;;;;;4985075;28;20174;-67
2023/11/08 08:03:15;;;;;;;0.30;0.30;;;13.20;99.90;;;;;;4974254;28;20425;-68
2023/11/08 08:05:44;;;;;;;0.30;0.30;;;13.40;99.90;;;;;;4987372;28;20521;-68
2023/11/08 08:08:13;;;;;;;0.30;0.30;;;13.80;99.90;;;;;;4993883;28;20420;-68
2023/11/08 08:10:40;;;;;;;0.30;0.30;;;14.30;99.90;;;;;;4978941;28;20412;-70
2023/11/08 08:13:07;;;;;;;0.30;0.30;;;14.80;99.80;;;;;;4989372;28;20388;-68
2023/11/08 08:15:33;;;;;;;0.30;0.30;;;15.40;99.10;;;;;;4966681;28;20909;-69
2023/11/08 08:17:59;;;;;;;0.30;0.30;;;16.00;98.40;;;;;;4974822;28;20484;-69
2023/11/08 08:20:27;;;;;;;0.30;0.30;;;16.60;96.40;;;;;;4973740;28;20211;-68
2023/11/08 08:22:53;;;;;;;0.30;0.30;;;17.20;95.50;;;;;;4980947;28;20440;-68
2023/11/08 08:25:19;;;;;;;0.30;0.20;;;17.80;95.10;;;;;;4992501;28;20856;-71
2023/11/08 08:27:44;;;;;;;0.40;0.40;;;18.30;93.90;;;;;;4993796;28;20596;-66
2023/11/08 08:30:14;;;;;;;0.30;0.30;;;18.70;92.70;;;;;;4982981;28;20506;-69
2023/11/08 08:32:44;;;;;;;0.30;0.30;;;19.00;91.20;;;;;;4988946;28;20260;-68
2023/11/08 08:35:10;;;;;;;0.30;0.20;;;19.20;91.30;;;;;;4974868;28;20472;-68
2023/11/08 08:37:36;;;;;;;0.47;0.47;;;19.30;90.30;;;;;;4974508;28;20409;-68
2023/11/08 08:40:04;;;;;;;0.30;0.20;;;19.50;89.90;;;;;;4977754;28;20408;-66
2023/11/08 08:42:30;;;;;;;0.30;0.20;;;19.60;90.00;;;;;;4978172;28;20171;-68
2023/11/08 08:44:56;;;;;;;0.30;0.30;;;19.70;89.10;;;;;;4986709;28;20448;-66
2023/11/08 08:47:21;;;;;;;0.30;0.30;;;19.60;87.60;;;;;;4962034;28;20182;-66
2023/11/08 08:49:49;;;;;;;0.30;0.30;;;19.10;87.90;;;;;;4987327;28;20185;-67
2023/11/08 08:52:15;;;;;;;0.30;0.20;;;19.00;89.70;;;;;;4978130;28;20258;-72
2023/11/08 08:54:41;;;;;;;0.30;0.30;;;18.90;89.20;;;;;;4977367;28;20996;-68
2023/11/08 08:57:07;;;;;;;0.30;0.30;;;19.10;88.80;;;;;;4977803;28;20385;-68
2023/11/08 08:59:33;;;;;;;0.30;0.30;;;19.10;88.90;;;;;;4962083;28;20661;-66
2023/11/08 09:01:58;;;;;;;0.30;0.30;;;19.10;88.30;;;;;;4982268;28;20229;-67
2023/11/08 09:04:24;;;;;;;0.30;0.20;;;19.10;89.30;;;;;;4976489;28;20438;-68
2023/11/08 09:06:49;;;;;;;0.30;0.20;;;19.40;89.20;;;;;;4974165;28;20214;-69
2023/11/08 09:09:15;;;;;;;0.40;0.40;;;19.60;88.00;;;;;;4984521;28;20543;-68
2023/11/08 09:11:41;;;;;;;0.30;0.30;;;19.80;87.60;;;;;;4960218;28;20184;-68
2023/11/08 09:14:10;;;;;;;0.30;0.30;;;20.00;87.40;;;;;;4986749;28;20259;-67
2023/11/08 09:16:37;;;;;;;0.30;0.30;;;20.20;87.00;;;;;;4983268;28;20656;-68
2023/11/08 09:19:12;;;;;;;0.30;0.30;;;20.60;86.60;;;;;;4980689;28;20485;-67
2023/11/08 09:21:38;;;;;;;0.30;0.30;;;20.90;84.40;;;;;;4977724;28;20429;-68
2023/11/08 09:24:06;;;;;;;0.30;0.30;;;20.90;84.50;;;;;;4990839;28;21322;-67
2023/11/08 09:26:33;;;;;;;0.30;0.20;;;21.00;84.50;;;;;;4976730;28;20568;-67
2023/11/08 09:28:59;;;;;;;0.30;0.30;;;21.30;84.70;;;;;;4977247;28;20458;-64
2023/11/08 09:31:27;;;;;;;0.30;0.30;;;21.50;83.90;;;;;;4977323;28;20507;-73
2023/11/08 09:33:56;;;;;;;0.30;0.30;;;21.60;82.70;;;;;;4976914;28;20176;-66
2023/11/08 09:36:22;;;;;;;0.30;0.30;;;21.70;82.00;;;;;;4976806;28;20834;-67
2023/11/08 09:38:50;;;;;;;0.30;0.30;;;21.50;81.10;;;;;;4976526;28;20484;-66
2023/11/08 09:41:17;;;;;;;0.30;0.30;;;21.10;80.10;;;;;;4977279;28;20903;-66
2023/11/08 09:43:44;;;;;;;0.30;0.30;;;20.40;81.60;;;;;;4977046;28;20389;-67
2023/11/08 09:46:10;;;;;;;0.30;0.30;;;19.80;82.70;;;;;;4987269;28;20431;-66
2023/11/08 09:48:36;;;;;;;0.30;0.30;;;18.90;84.00;;;;;;4975612;28;20762;-67
2023/11/08 09:51:02;;;;;;;0.30;0.20;;;18.20;87.00;;;;;;4994166;28;20397;-66
2023/11/08 09:53:29;;;;;;;0.30;0.30;;;17.60;87.70;;;;;;4976703;28;20180;-67
2023/11/08 09:55:59;;;;;;;0.30;0.30;;;17.30;89.30;;;;;;4978112;28;20475;-67
2023/11/08 09:58:25;;;;;;;0.30;0.30;;;16.90;90.40;;;;;;4976853;28;20403;-66
2023/11/08 10:00:55;;;;;;;0.30;0.30;;;16.60;90.80;;;;;;4984572;28;20421;-67
2023/11/08 10:03:25;;;;;;;0.30;0.20;;;16.50;91.00;;;;;;4978842;28;20415;-65
2023/11/08 10:05:54;;;;;;;0.40;0.40;;;16.40;90.80;;;;;;4985145;28;20442;-67
2023/11/08 10:08:19;;;;;;;0.30;0.23;;;16.10;91.60;;;;;;4995919;28;20446;-67
2023/11/08 10:10:48;;;;;;;0.30;0.30;;;16.10;91.90;;;;;;4996001;28;20877;-67
2023/11/08 10:13:15;;;;;;;0.30;0.30;;;16.00;92.40;;;;;;4996091;28;20532;-66
2023/11/08 10:15:41;;;;;;;0.30;0.30;;;16.30;92.40;;;;;;4991525;28;20450;-66
2023/11/08 10:18:08;;;;;;;0.30;0.30;;;16.60;91.80;;;;;;4995433;28;20473;-66
2023/11/08 10:20:37;;;;;;;0.30;0.20;;;16.80;90.70;;;;;;4983223;28;20426;-67
2023/11/08 10:23:07;;;;;;;0.30;0.27;;;16.70;90.40;;;;;;4976208;28;20435;-67
2023/11/08 10:25:33;;;;;;;0.30;0.30;;;16.60;90.80;;;;;;4975334;28;20459;-67
2023/11/08 10:28:04;;;;;;;0.30;0.30;;;16.40;90.80;;;;;;4976505;28;20457;-66
2023/11/08 10:30:39;;;;;;;0.30;0.30;;;16.30;91.20;;;;;;4976233;28;20977;-67
2023/11/08 10:33:11;;;;;;;0.30;0.30;;;16.30;91.20;;;;;;4987087;28;20557;-66
2023/11/08 10:35:39;;;;;;;0.30;0.27;;;16.50;91.30;;;;;;4975605;28;21001;-67
2023/11/08 10:38:05;;;;;;;0.30;0.30;;;16.60;91.00;;;;;;4958679;28;20505;-67
2023/11/08 10:40:32;;;;;;;0.30;0.30;;;16.70;91.30;;;;;;4985215;28;20422;-66
2023/11/08 10:42:59;;;;;;;0.30;0.30;;;16.90;90.80;;;;;;4995115;28;20882;-67
2023/11/08 10:45:26;;;;;;;0.30;0.30;;;17.10;91.00;;;;;;4977658;28;20549;-68
2023/11/08 10:47:51;;;;;;;0.30;0.30;;;17.40;90.70;;;;;;4990727;28;20419;-67
2023/11/08 10:50:18;;;;;;;0.30;0.20;;;17.60;90.20;;;;;;4990529;28;20384;-67
2023/11/08 10:52:48;;;;;;;0.30;0.30;;;17.70;89.80;;;;;;4958244;28;20416;-67
2023/11/08 10:55:15;;;;;;;0.40;0.40;;;17.50;88.90;;;;;;4974804;28;20468;-70
2023/11/08 10:57:42;;;;;;;0.30;0.30;;;17.20;89.70;;;;;;4980568;28;20941;-66
2023/11/08 11:00:08;;;;;;;0.30;0.20;;;16.80;90.20;;;;;;4994767;28;20495;-69
2023/11/08 11:02:42;;;;;;;0.30;0.30;;;16.50;90.60;;;;;;4983624;28;20507;-69
2023/11/08 11:05:10;;;;;;;0.30;0.30;;;16.30;90.80;;;;;;4972414;28;20466;-66
2023/11/08 11:07:40;;;;;;;0.30;0.20;;;15.90;92.00;;;;;;4975610;28;20446;-69
2023/11/08 11:10:10;;;;;;;0.30;0.30;;;15.70;91.80;;;;;;4985211;28;20424;-65
2023/11/08 11:12:50;;;;;;;0.30;0.20;;;15.20;92.80;;;;;;4976356;28;20451;-64
2023/11/08 11:15:24;;;;;;;0.30;0.30;;;15.00;92.80;;;;;;4975843;28;20457;-68
2023/11/08 11:17:55;;;;;;;0.30;0.30;;;14.80;93.40;;;;;;4977446;28;20425;-68
2023/11/08 11:20:23;;;;;;;0.33;0.33;;;14.40;94.10;;;;;;4982922;28;20440;-68
2023/11/08 11:22:49;;;;;;;0.30;0.30;;;14.20;95.00;;;;;;4975003;28;20384;-67
2023/11/08 11:25:50;;;;;;;0.30;0.30;;;14.00;94.80;;;;;;4992716;28;20996;-69
2023/11/08 11:28:57;;;;;;;0.30;0.30;;;13.90;95.30;;;;;;4994514;28;20248;-68
2023/11/08 11:31:38;;;;;;;0.30;0.30;;;13.80;95.40;;;;;;4985779;28;20805;-65
2023/11/08 11:34:24;;;;;;;0.30;0.30;;;13.80;95.40;;;;;;4994220;28;20394;-67
2023/11/08 11:37:02;;;;;;;0.43;0.43;;;13.70;95.90;;;;;;4977875;28;20431;-67
2023/11/08 11:39:32;;;;;;;0.30;0.30;;;13.60;96.00;;;;;;4974080;28;20417;-66
2023/11/08 11:41:58;;;;;;;0.30;0.20;;;13.60;96.20;;;;;;4975271;28;20900;-67
2023/11/08 11:44:36;;;;;;;0.30;0.30;;;13.70;96.30;;;;;;4978734;28;20454;-66
2023/11/08 11:47:08;;;;;;;0.30;0.30;;;13.60;96.10;;;;;;4979146;28;20410;-65
2023/11/08 11:49:47;;;;;;;0.30;0.30;;;13.60;96.20;;;;;;4980962;28;20420;-71
2023/11/08 11:52:18;;;;;;;0.33;0.33;;;13.50;96.60;;;;;;4958573;28;20502;-71
2023/11/08 11:54:51;;;;;;;0.30;0.30;;;13.40;96.60;;;;;;4975148;28;20612;-69
2023/11/08 11:57:19;;;;;;;0.30;0.30;;;13.40;96.70;;;;;;4974684;28;20411;-69
2023/11/08 11:59:50;;;;;;;0.30;0.30;;;13.30;96.90;;;;;;4956781;28;20522;-67
2023/11/08 12:02:17;;;;;;;0.40;0.40;;;13.30;96.90;;;;;;4991152;28;20417;-68
2023/11/08 12:04:44;;;;;;;0.30;0.30;;;13.30;96.90;;;;;;4993421;28;20957;-67
2023/11/08 12:07:11;;;;;;;0.40;0.40;;;13.30;97.30;;;;;;4975006;28;20522;-67
2023/11/08 12:09:39;;;;;;;0.30;0.30;;;13.40;97.00;;;;;;4991602;28;20481;-68
2023/11/08 12:12:06;;;;;;;0.30;0.27;;;13.50;97.00;;;;;;4988403;28;20774;-68
2023/11/08 12:14:33;;;;;;;0.30;0.30;;;13.40;97.00;;;;;;4991276;28;20419;-69
2023/11/08 12:16:59;;;;;;;0.30;0.30;;;13.40;96.90;;;;;;4957308;28;20511;-68
2023/11/08 12:19:33;;;;;;;0.30;0.30;;;13.30;97.30;;;;;;4959261;28;20838;-71
2023/11/08 12:22:00;;;;;;;0.30;0.30;;;13.20;97.20;;;;;;4955102;29;20427;-68
2023/11/08 12:24:29;;;;;;;0.30;0.30;;;13.20;97.40;;;;;;4959800;28;20458;-69
2023/11/08 12:26:55;;;;;;;0.30;0.30;;;13.20;97.80;;;;;;4991629;28;20576;-70
2023/11/08 12:29:21;;;;;;;0.30;0.30;;;13.20;97.00;;;;;;4990301;28;20494;-68
2023/11/08 12:31:47;;;;;;;0.30;0.30;;;13.20;97.30;;;;;;4962416;28;20708;-67
2023/11/08 12:34:14;;;;;;;0.37;0.37;;;13.20;97.20;;;;;;4990104;28;20408;-68
2023/11/08 12:36:40;;;;;;;0.30;0.30;;;13.20;97.10;;;;;;4974172;28;20266;-66
2023/11/08 12:39:13;;;;;;;0.50;0.50;;;13.20;97.10;;;;;;4973913;28;20404;-67
2023/11/08 12:41:49;;;;;;;0.30;0.30;;;13.10;97.10;;;;;;4974130;28;20202;-67
2023/11/08 12:44:20;;;;;;;0.30;0.30;;;13.00;97.40;;;;;;4977812;28;20454;-67
2023/11/08 12:46:53;;;;;;;0.30;0.30;;;13.00;97.90;;;;;;4974968;28;20444;-69
2023/11/08 12:49:25;;;;;;;0.40;0.40;;;13.00;97.80;;;;;;4974103;28;20417;-67
2023/11/08 12:51:50;;;;;;;0.30;0.30;;;13.10;97.80;;;;;;4956675;28;20427;-67
2023/11/08 12:54:18;;;;;;;0.30;0.30;;;13.00;97.90;;;;;;4965959;28;20428;-67
2023/11/08 12:56:44;;;;;;;0.30;0.30;;;13.00;98.00;;;;;;4973869;28;20508;-67
2023/11/08 12:59:16;;;;;;;0.30;0.30;;;12.90;98.00;;;;;;4973918;28;20430;-67
2023/11/08 13:01:51;;;;;;;0.30;0.30;;;12.90;98.20;;;;;;4985953;28;20477;-69
2023/11/08 13:04:18;;;;;;;0.30;0.30;;;12.90;98.40;;;;;;4991037;28;20457;-70
2023/11/08 13:06:49;;;;;;;0.30;0.30;;;12.90;98.40;;;;;;4972684;28;20465;-69
2023/11/08 13:09:15;;;;;;;0.30;0.30;;;13.00;98.60;;;;;;4973361;28;20426;-70
2023/11/08 13:11:41;;;;;;;0.43;0.43;;;13.00;98.70;;;;;;4974056;28;20845;-70
2023/11/08 13:14:07;;;;;;;0.47;0.40;;;13.10;98.70;;;;;;4974434;28;20458;-68
2023/11/08 13:16:33;;;;;;;0.30;0.30;;;13.20;98.80;;;;;;4972771;28;20525;-69
2023/11/08 13:19:00;;;;;;;0.30;0.30;;;13.20;98.20;;;;;;4993083;28;20183;-70
2023/11/08 13:21:26;;;;;;;0.30;0.30;;;13.20;98.10;;;;;;4976842;28;20435;-70
2023/11/08 13:23:53;;;;;;;0.30;0.30;;;13.20;97.40;;;;;;4974710;28;20423;-66
2023/11/08 13:26:20;;;;;;;0.40;0.40;;;13.20;97.60;;;;;;4994728;28;20524;-66
2023/11/08 13:28:45;;;;;;;0.30;0.30;;;13.20;98.20;;;;;;4994901;28;20608;-66
2023/11/08 13:31:12;;;;;;;0.30;0.30;;;13.20;97.90;;;;;;4991182;28;20470;-66
2023/11/08 13:33:39;;;;;;;0.70;0.67;;;13.20;98.10;;;;;;4980742;28;20180;-65
2023/11/08 13:36:05;;;;;;;0.30;0.30;;;13.20;97.80;;;;;;4977922;28;20830;-65
2023/11/08 13:38:31;;;;;;;0.30;0.30;;;13.20;97.40;;;;;;4987350;28;20430;-65
2023/11/08 13:40:57;;;;;;;0.33;0.33;;;13.10;97.30;;;;;;4996551;28;20414;-64
2023/11/08 13:43:23;;;;;;;0.30;0.30;;;13.10;97.40;;;;;;4988804;28;20195;-65
2023/11/08 13:45:49;;;;;;;0.30;0.30;;;13.10;97.50;;;;;;4980417;28;20211;-63
2023/11/08 13:48:15;;;;;;;0.30;0.30;;;13.00;97.40;;;;;;4963695;28;20474;-64
2023/11/08 13:50:41;;;;;;;0.30;0.30;;;13.00;97.10;;;;;;4977888;28;20624;-64
2023/11/08 13:53:06;;;;;;;0.30;0.30;;;13.00;97.20;;;;;;4976813;28;20475;-64
2023/11/08 13:55:32;;;;;;;0.30;0.27;;;13.00;97.00;;;;;;4987211;28;20431;-64
2023/11/08 13:57:57;;;;;;;0.30;0.30;;;13.00;96.80;;;;;;4976442;28;20271;-65
2023/11/08 14:00:23;;;;;;;0.77;0.50;;;13.00;96.70;;;;;;4992274;28;20195;-64
2023/11/08 14:02:49;;;;;;;0.30;0.30;;;13.00;97.10;;;;;;4990117;28;20179;-63
2023/11/08 14:05:17;;;;;;;0.30;0.30;;;12.90;96.50;;;;;;4973878;28;20207;-64
2023/11/08 14:07:43;;;;;;;0.30;0.30;;;13.00;96.50;;;;;;4974830;28;20204;-64
2023/11/08 14:10:09;;;;;;;0.30;0.30;;;13.00;96.40;;;;;;4974976;28;20419;-63
2023/11/08 14:12:34;;;;;;;0.37;0.37;;;13.00;96.80;;;;;;4974607;28;20176;-65
2023/11/08 14:15:00;;;;;;;0.30;0.30;;;13.00;96.80;;;;;;4973768;28;20203;-64
2023/11/08 14:17:26;;;;;;;0.33;0.33;;;13.00;96.80;;;;;;4974774;28;20197;-65
2023/11/08 14:19:52;;;;;;;0.30;0.30;;;13.10;96.60;;;;;;4983863;28;20182;-64
2023/11/08 14:22:22;;;;;;;0.30;0.30;;;13.10;96.60;;;;;;4981145;28;20311;-66
2023/11/08 14:24:48;;;;;;;0.30;0.30;;;13.00;96.60;;;;;;4957938;28;20553;-66
2023/11/08 14:27:15;;;;;;;0.30;0.30;;;13.00;96.70;;;;;;4976208;28;20427;-70
2023/11/08 14:29:40;;;;;;;0.30;0.30;;;13.00;96.70;;;;;;4976182;28;20418;-67
2023/11/08 14:32:08;;;;;;;0.30;0.27;;;12.90;97.30;;;;;;4992033;28;20481;-68
2023/11/08 14:34:34;;;;;;;0.30;0.30;;;12.80;96.60;;;;;;4983511;28;20275;-68
2023/11/08 14:37:02;;;;;;;0.40;0.40;;;12.70;96.90;;;;;;4975388;28;20929;-65
2023/11/08 14:39:29;;;;;;;0.50;0.50;;;12.60;97.40;;;;;;4991308;28;20785;-67
2023/11/08 14:41:55;;;;;;;0.30;0.30;;;12.60;97.10;;;;;;4994896;28;20432;-64
2023/11/08 14:44:21;;;;;;;0.30;0.30;;;12.50;97.60;;;;;;4987117;28;20462;-65
2023/11/08 14:46:46;;;;;;;0.77;0.77;;;12.50;97.60;;;;;;4975632;28;20211;-64
2023/11/08 14:49:12;;;;;;;0.30;0.30;;;12.40;98.10;;;;;;4975965;28;20175;-63
2023/11/08 14:51:39;;;;;;;0.30;0.30;;;12.40;98.40;;;;;;4975769;28;20411;-61
2023/11/08 14:54:07;;;;;;;0.30;0.30;;;12.40;98.20;;;;;;4986784;28;20578;-63
2023/11/08 14:56:33;;;;;;;0.30;0.27;;;12.40;98.20;;;;;;4976199;28;20453;-63
2023/11/08 14:58:59;;;;;;;0.30;0.30;;;12.40;98.00;;;;;;4975776;28;20921;-62
2023/11/08 15:01:24;;;;;;;0.30;0.30;;;12.40;97.90;;;;;;4975711;28;20427;-62
2023/11/08 15:03:50;;;;;;;0.30;0.30;;;12.20;97.60;;;;;;4974500;28;20187;-65
2023/11/08 15:06:16;;;;;;;0.40;0.40;;;12.20;97.70;;;;;;4975184;28;20606;-64
2023/11/08 15:08:42;;;;;;;0.30;0.30;;;12.10;97.90;;;;;;4977273;28;20540;-62
2023/11/08 15:11:08;;;;;;;0.30;0.30;;;12.00;98.00;;;;;;4977545;28;20417;-66
2023/11/08 15:13:34;;;;;;;0.30;0.30;;;11.90;98.40;;;;;;4993688;28;20506;-63
2023/11/08 15:16:00;;;;;;;0.40;0.40;;;11.80;99.00;;;;;;4977537;28;20210;-65
2023/11/08 15:18:27;;;;;;;0.30;0.30;;;11.70;99.30;;;;;;4963118;28;20434;-62
2023/11/08 15:20:54;;;;;;;0.30;0.20;;;11.60;99.60;;;;;;4975471;28;20522;-65
2023/11/08 15:23:20;;;;;;;0.30;0.20;;;11.50;99.50;;;;;;4975278;28;20937;-61
2023/11/08 15:25:46;;;;;;;0.50;0.50;;;11.50;99.70;;;;;;4974211;28;20477;-63
2023/11/08 15:28:14;;;;;;;0.40;0.40;;;11.50;99.60;;;;;;4975182;28;20483;-64
2023/11/08 15:30:43;;;;;;;0.40;0.40;;;11.50;99.60;;;;;;4975271;28;20422;-64
2023/11/08 15:33:09;;;;;;;0.30;0.30;;;11.50;99.60;;;;;;4975380;28;20467;-62
2023/11/08 15:35:35;;;;;;;0.30;0.30;;;11.50;99.80;;;;;;4974457;28;20949;-62
2023/11/08 15:38:01;;;;;;;0.43;0.43;;;11.50;99.80;;;;;;4975211;28;20544;-63
2023/11/08 15:40:26;;;;;;;0.40;0.40;;;11.40;99.90;;;;;;4978322;28;20533;-63
2023/11/08 15:42:52;;;;;;;0.30;0.30;;;11.40;99.90;;;;;;4981007;28;20194;-65
2023/11/08 15:45:18;;;;;;;0.30;0.30;;;11.40;99.90;;;;;;4973962;28;20245;-63
2023/11/08 15:47:44;;;;;;;0.30;0.30;;;11.40;99.90;;;;;;4982362;28;20202;-67
2023/11/08 15:50:11;;;;;;;0.30;0.30;;;11.40;99.90;;;;;;4994386;28;20264;-63
2023/11/08 15:52:39;;;;;;;0.30;0.30;;;11.40;99.90;;;;;;4994142;28;20415;-65
2023/11/08 15:55:05;;;;;;;0.30;0.30;;;11.30;99.90;;;;;;4990412;28;20957;-65
2023/11/08 15:57:31;;;;;;;0.30;0.30;;;11.20;99.90;;;;;;4990622;28;20626;-65
2023/11/08 15:59:57;;;;;;;0.30;0.30;;;11.20;99.90;;;;;;4976527;28;20421;-63
2023/11/08 16:02:22;;;;;;;0.30;0.30;;;11.10;99.90;;;;;;4980505;28;20263;-64
2023/11/08 16:04:48;;;;;;;0.30;0.30;;;11.00;99.90;;;;;;4983663;28;20231;-66
2023/11/08 16:07:15;;;;;;;0.30;0.30;;;10.90;99.90;;;;;;4974322;28;20223;-66
2023/11/08 16:09:40;;;;;;;0.30;0.30;;;10.80;99.90;;;;;;4974421;28;20172;-66
2023/11/08 16:12:09;;;;;;;0.30;0.30;;;10.70;99.90;;;;;;4977988;28;20663;-62
2023/11/08 16:14:36;;;;;;;0.40;0.40;;;10.60;99.90;;;;;;4987907;28;20259;-63
2023/11/08 16:17:02;;;;;;;0.30;0.30;;;10.50;99.90;;;;;;4974052;28;20216;-63
2023/11/08 16:19:27;;;;;;;0.30;0.30;;;10.30;99.90;;;;;;4957024;28;20550;-65
2023/11/08 16:21:54;;;;;;;0.30;0.30;;;10.20;99.90;;;;;;4957162;28;20184;-63
2023/11/08 16:24:19;;;;;;;0.30;0.30;;;10.10;99.90;;;;;;4973455;28;20209;-65
2023/11/08 16:26:47;;;;;;;0.30;0.30;;;10.00;99.90;;;;;;4973906;28;20664;-64
2023/11/08 16:29:13;;;;;;;0.30;0.30;;;9.90;99.90;;;;;;4973538;28;20165;-65
2023/11/08 16:31:38;;;;;;;0.30;0.30;;;9.90;99.90;;;;;;4973431;28;20660;-62
2023/11/08 16:34:04;;;;;;;0.40;0.40;;;9.80;99.90;;;;;;4973836;28;20454;-66
2023/11/08 16:36:30;;;;;;;0.30;0.30;;;9.70;99.90;;;;;;4972308;28;20188;-64
2023/11/08 16:38:55;;;;;;;0.30;0.30;;;9.60;99.90;;;;;;4954687;28;20172;-65
2023/11/08 16:41:21;;;;;;;0.30;0.30;;;9.50;99.90;;;;;;4973421;28;20521;-67
2023/11/08 16:43:47;;;;;;;0.40;0.40;;;9.40;99.90;;;;;;4972539;28;20234;-65
2023/11/08 16:46:14;;;;;;;1.70;0.83;;;9.40;99.90;;;;;;4981440;28;20196;-63
2023/11/08 16:48:40;;;;;;;0.30;0.30;;;9.30;99.90;;;;;;4992081;28;20184;-65
2023/11/08 16:51:06;;;;;;;0.37;0.37;;;9.20;99.90;;;;;;4974623;28;20172;-65
2023/11/08 16:53:32;;;;;;;0.40;0.40;;;9.10;99.90;;;;;;4969362;28;20299;-64
2023/11/08 16:55:57;;;;;;;0.30;0.30;;;9.10;99.90;;;;;;4993075;28;20835;-65